Time;durP1;ratioP1;P1;durP2;ratioP2;P2;SDS_P1;SDS_P2;PMS_P1;PMS_P2;Temp;Humidity;BMP_temperature;BMP_pressure;BME280_temperature;BME280_humidity;BME280_pressure;Samples;Min_cycle;Max_cycle;Signal;HPM_P1;HPM_P2
2023/02/24 00:02:21;;;;;;;4.25;0.68;;;;;;;;;;5085855;28;20044;-72
2023/02/24 00:04:53;;;;;;;7.35;0.80;;;;;;;;;;5089077;28;20398;-74
2023/02/24 00:07:28;;;;;;;7.88;0.80;;;;;;;;;;5091043;28;20059;-74
2023/02/24 00:09:59;;;;;;;6.82;0.70;;;;;;;;;;5090744;28;20051;-73
2023/02/24 00:12:29;;;;;;;4.10;0.80;;;;;;;;;;5089302;28;20052;-73
2023/02/24 00:15:00;;;;;;;3.38;0.55;;;;;;;;;;5073250;28;20044;-73
2023/02/24 00:17:30;;;;;;;3.78;0.73;;;;;;;;;;5071110;28;20052;-72
2023/02/24 00:20:04;;;;;;;5.47;0.70;;;;;;;;;;5090239;28;20051;-73
2023/02/24 00:22:35;;;;;;;3.60;0.68;;;;;;;;;;5089323;28;20067;-72
2023/02/24 00:25:06;;;;;;;1.55;0.47;;;;;;;;;;5090423;28;20056;-73
2023/02/24 00:27:37;;;;;;;3.25;1.13;;;;;;;;;;5089726;28;20052;-73
2023/02/24 00:30:09;;;;;;;3.10;0.50;;;;;;;;;;5071175;28;20546;-73
2023/02/24 00:32:41;;;;;;;3.47;0.75;;;;;;;;;;5089557;28;20048;-72
2023/02/24 00:35:13;;;;;;;4.43;0.65;;;;;;;;;;5070520;28;20063;-72
2023/02/24 00:37:50;;;;;;;1.73;0.55;;;;;;;;;;5070572;28;20407;-74
2023/02/24 00:40:22;;;;;;;5.25;0.73;;;;;;;;;;5070583;28;20056;-71
2023/02/24 00:42:53;;;;;;;1.52;0.52;;;;;;;;;;5071427;28;20063;-73
2023/02/24 00:45:24;;;;;;;5.30;0.57;;;;;;;;;;5088969;28;20036;-73
2023/02/24 00:47:56;;;;;;;3.40;0.50;;;;;;;;;;5071314;28;20055;-73
2023/02/24 00:50:27;;;;;;;3.58;0.70;;;;;;;;;;5089893;28;20529;-73
2023/02/24 00:52:58;;;;;;;1.90;0.40;;;;;;;;;;5070324;28;20060;-73
2023/02/24 00:55:35;;;;;;;0.68;0.50;;;;;;;;;;5089479;28;20048;-73
2023/02/24 00:58:06;;;;;;;2.42;0.50;;;;;;;;;;5071260;28;20446;-73
2023/02/24 01:00:36;;;;;;;2.28;0.57;;;;;;;;;;5089778;28;20040;-74
2023/02/24 01:03:06;;;;;;;6.82;0.70;;;;;;;;;;5089712;28;20721;-73
2023/02/24 01:05:37;;;;;;;3.30;0.60;;;;;;;;;;5071717;28;20059;-72
2023/02/24 01:08:08;;;;;;;3.22;0.52;;;;;;;;;;5089960;28;20051;-72
2023/02/24 01:10:38;;;;;;;0.93;0.50;;;;;;;;;;5090422;28;20055;-72
2023/02/24 01:13:08;;;;;;;3.53;0.60;;;;;;;;;;5070714;28;20052;-74
2023/02/24 01:15:39;;;;;;;4.75;0.52;;;;;;;;;;5088207;28;20414;-73
2023/02/24 01:18:11;;;;;;;1.58;0.60;;;;;;;;;;5069066;28;20052;-73
2023/02/24 01:20:42;;;;;;;1.98;0.63;;;;;;;;;;5089466;28;20067;-75
2023/02/24 01:23:12;;;;;;;5.93;0.80;;;;;;;;;;5070880;28;20067;-73
2023/02/24 01:25:46;;;;;;;3.80;0.50;;;;;;;;;;5069562;28;20640;-72
2023/02/24 01:28:17;;;;;;;1.33;0.52;;;;;;;;;;5088374;28;20051;-73
2023/02/24 01:30:47;;;;;;;5.22;0.70;;;;;;;;;;5089687;28;20047;-74
2023/02/24 01:33:17;;;;;;;5.28;0.52;;;;;;;;;;5097550;28;20046;-73
2023/02/24 01:35:50;;;;;;;4.15;0.50;;;;;;;;;;5081764;28;20051;-73
2023/02/24 01:38:24;;;;;;;4.38;0.57;;;;;;;;;;5090347;28;20058;-73
2023/02/24 01:40:58;;;;;;;3.25;0.52;;;;;;;;;;5089783;28;20058;-73
2023/02/24 01:43:29;;;;;;;2.85;0.60;;;;;;;;;;5089603;28;20059;-74
2023/02/24 01:46:00;;;;;;;1.40;0.50;;;;;;;;;;5089896;28;20378;-73
2023/02/24 01:48:32;;;;;;;1.15;0.60;;;;;;;;;;5108427;28;20052;-73
2023/02/24 01:51:02;;;;;;;2.50;0.63;;;;;;;;;;5108484;28;20478;-74
2023/02/24 01:53:34;;;;;;;3.22;0.75;;;;;;;;;;5108285;28;20046;-74
2023/02/24 01:56:05;;;;;;;2.13;0.60;;;;;;;;;;5108449;28;20437;-73
2023/02/24 01:58:36;;;;;;;1.48;0.43;;;;;;;;;;5090458;28;20051;-72
2023/02/24 02:01:08;;;;;;;2.85;0.47;;;;;;;;;;5089803;28;20052;-72
2023/02/24 02:03:41;;;;;;;4.90;0.68;;;;;;;;;;5090582;28;20043;-72
2023/02/24 02:06:16;;;;;;;0.40;0.40;;;;;;;;;;5108897;28;20039;-73
2023/02/24 02:08:47;;;;;;;0.40;0.40;;;;;;;;;;5108779;28;20048;-73
2023/02/24 02:11:21;;;;;;;6.05;0.63;;;;;;;;;;5108998;28;20047;-74
2023/02/24 02:13:52;;;;;;;3.10;0.93;;;;;;;;;;5108412;28;20047;-72
2023/02/24 02:17:02;;;;;;;3.13;1.02;;;;;;;;;;5108354;28;20043;-72
2023/02/24 02:20:14;;;;;;;4.07;0.60;;;;;;;;;;5108589;28;20040;-72
2023/02/24 02:23:03;;;;;;;3.70;0.63;;;;;;;;;;5066466;28;20494;-72
2023/02/24 02:25:54;;;;;;;2.05;0.60;;;;;;;;;;5090112;28;20047;-73
2023/02/24 02:28:42;;;;;;;2.42;0.63;;;;;;;;;;5108294;28;20071;-73
2023/02/24 02:31:31;;;;;;;4.38;0.70;;;;;;;;;;5090416;28;20055;-72
2023/02/24 02:34:22;;;;;;;3.38;0.60;;;;;;;;;;5074552;28;20066;-74
2023/02/24 02:37:29;;;;;;;3.65;0.70;;;;;;;;;;5089497;28;20422;-73
2023/02/24 02:40:23;;;;;;;3.25;0.73;;;;;;;;;;5093032;28;20059;-72
2023/02/24 02:43:16;;;;;;;;;;;;;;;;;;5090417;28;20129;-74
2023/02/24 02:46:09;;;;;;;4.50;0.75;;;;;;;;;;5108554;28;19924;-73
2023/02/24 02:48:58;;;;;;;8.27;0.88;;;;;;;;;;5108026;28;20050;-73
2023/02/24 02:51:55;;;;;;;0.60;0.60;;;;;;;;;;5107648;28;20051;-74
2023/02/24 02:54:44;;;;;;;3.00;0.95;;;;;;;;;;5089982;28;20059;-72
2023/02/24 02:57:28;;;;;;;0.90;0.50;;;;;;;;;;5088951;28;20056;-72
2023/02/24 03:00:33;;;;;;;3.75;0.75;;;;;;;;;;5089412;28;20051;-74
2023/02/24 03:03:11;;;;;;;3.42;0.75;;;;;;;;;;5108225;28;20051;-71
2023/02/24 03:05:52;;;;;;;0.95;0.73;;;;;;;;;;5088111;28;20473;-73
2023/02/24 03:08:28;;;;;;;3.10;0.63;;;;;;;;;;5088708;28;20048;-72
2023/02/24 03:11:01;;;;;;;1.25;0.60;;;;;;;;;;5107868;28;20043;-74
2023/02/24 03:13:36;;;;;;;2.38;0.80;;;;;;;;;;5088093;28;20066;-71
2023/02/24 03:16:10;;;;;;;1.70;0.57;;;;;;;;;;5088849;28;20051;-72
2023/02/24 03:18:49;;;;;;;4.63;0.70;;;;;;;;;;5088945;28;20055;-72
2023/02/24 03:21:32;;;;;;;2.75;0.75;;;;;;;;;;5107671;28;20046;-74
2023/02/24 03:24:05;;;;;;;4.18;0.82;;;;;;;;;;5088743;28;20052;-72
2023/02/24 03:26:50;;;;;;;2.20;0.73;;;;;;;;;;5089063;28;20055;-73
2023/02/24 03:29:29;;;;;;;5.13;0.75;;;;;;;;;;5087932;28;20074;-78
2023/02/24 03:32:06;;;;;;;2.92;0.95;;;;;;;;;;5107440;28;20074;-73
2023/02/24 03:34:57;;;;;;;1.35;0.70;;;;;;;;;;5107009;28;20052;-74
2023/02/24 03:37:32;;;;;;;4.72;0.90;;;;;;;;;;5087913;28;20055;-71
2023/02/24 03:40:10;;;;;;;2.25;0.80;;;;;;;;;;5088436;28;20109;-73
2023/02/24 03:42:51;;;;;;;0.93;0.80;;;;;;;;;;5088838;28;20048;-73
2023/02/24 03:45:22;;;;;;;2.80;0.93;;;;;;;;;;5088456;28;20426;-72
2023/02/24 03:47:54;;;;;;;4.97;0.85;;;;;;;;;;5088816;28;20055;-71
2023/02/24 03:50:30;;;;;;;2.60;0.75;;;;;;;;;;5088215;28;20067;-71
2023/02/24 03:53:11;;;;;;;1.85;0.80;;;;;;;;;;5088272;28;20056;-74
2023/02/24 03:55:47;;;;;;;;;;;;;;;;;;5073350;28;20532;-73
2023/02/24 03:58:33;;;;;;;5.38;0.80;;;;;;;;;;5088087;28;19924;-73
2023/02/24 04:01:18;;;;;;;6.95;0.93;;;;;;;;;;5088721;28;20055;-72
2023/02/24 04:04:10;;;;;;;1.27;0.70;;;;;;;;;;5088837;28;20510;-73
2023/02/24 04:07:05;;;;;;;2.55;1.15;;;;;;;;;;5106307;28;20075;-73
2023/02/24 04:10:11;;;;;;;2.38;0.80;;;;;;;;;;5088791;28;20423;-72
2023/02/24 04:13:09;;;;;;;4.05;0.85;;;;;;;;;;5057778;28;20052;-74
2023/02/24 04:15:42;;;;;;;7.60;1.00;;;;;;;;;;5088035;28;20059;-74
2023/02/24 04:18:28;;;;;;;5.18;0.90;;;;;;;;;;5087567;28;20058;-72
2023/02/24 04:21:02;;;;;;;3.60;0.93;;;;;;;;;;5088699;28;20059;-72
2023/02/24 04:23:42;;;;;;;8.18;1.83;;;;;;;;;;5087546;28;20086;-73
2023/02/24 04:26:15;;;;;;;0.75;0.70;;;;;;;;;;5105904;28;20526;-73
2023/02/24 04:28:47;;;;;;;4.28;0.73;;;;;;;;;;5087790;28;20040;-73
2023/02/24 04:31:21;;;;;;;2.97;0.70;;;;;;;;;;5106878;28;20040;-73
2023/02/24 04:33:52;;;;;;;4.22;0.80;;;;;;;;;;5106794;28;20047;-72
2023/02/24 04:36:34;;;;;;;4.95;0.90;;;;;;;;;;5088302;28;20070;-71
2023/02/24 04:39:06;;;;;;;5.93;0.75;;;;;;;;;;5088124;28;20055;-73
2023/02/24 04:41:37;;;;;;;3.97;0.77;;;;;;;;;;5087948;28;20051;-74
2023/02/24 04:44:06;;;;;;;4.13;1.10;;;;;;;;;;5106497;28;20051;-73
2023/02/24 04:46:37;;;;;;;3.05;0.85;;;;;;;;;;5106675;28;20051;-73
2023/02/24 04:49:08;;;;;;;2.05;0.90;;;;;;;;;;5106426;28;20071;-74
2023/02/24 04:51:43;;;;;;;4.88;1.10;;;;;;;;;;5092291;28;20056;-73
2023/02/24 04:54:18;;;;;;;5.20;0.85;;;;;;;;;;5110208;28;20054;-73
2023/02/24 04:56:50;;;;;;;3.65;0.98;;;;;;;;;;5110280;28;20379;-72
2023/02/24 04:59:23;;;;;;;1.92;1.10;;;;;;;;;;5091457;28;20510;-73
2023/02/24 05:01:54;;;;;;;10.82;1.30;;;;;;;;;;5110722;28;20052;-72
2023/02/24 05:04:25;;;;;;;3.67;1.08;;;;;;;;;;5109777;28;20502;-72
2023/02/24 05:06:56;;;;;;;5.47;1.10;;;;;;;;;;5110649;28;20059;-74
2023/02/24 05:09:28;;;;;;;2.80;1.00;;;;;;;;;;5108392;28;20055;-74
2023/02/24 05:12:00;;;;;;;5.97;1.30;;;;;;;;;;5092513;28;20678;-73
2023/02/24 05:14:31;;;;;;;3.40;1.15;;;;;;;;;;5092117;28;20063;-74
2023/02/24 05:17:01;;;;;;;1.90;1.20;;;;;;;;;;5109243;28;20044;-74
2023/02/24 05:22:21;;;;;;;2.22;1.23;;;;;;;;;;5109937;28;20051;-73
2023/02/24 05:24:52;;;;;;;7.68;1.25;;;;;;;;;;5110234;28;20047;-72
2023/02/24 05:27:21;;;;;;;5.15;1.23;;;;;;;;;;5109731;28;20050;-74
2023/02/24 05:29:54;;;;;;;5.18;1.00;;;;;;;;;;5109009;28;20059;-73
2023/02/24 05:32:25;;;;;;;4.00;1.10;;;;;;;;;;5109917;28;20050;-73
2023/02/24 05:34:55;;;;;;;11.85;1.50;;;;;;;;;;5108442;28;20066;-73
2023/02/24 05:37:25;;;;;;;6.40;1.20;;;;;;;;;;5109668;28;20046;-72
2023/02/24 05:39:59;;;;;;;7.47;1.15;;;;;;;;;;5091395;28;20036;-73
2023/02/24 05:42:33;;;;;;;2.90;1.17;;;;;;;;;;5109085;28;20067;-73
2023/02/24 05:45:05;;;;;;;4.35;1.10;;;;;;;;;;5109611;28;20043;-74
2023/02/24 05:47:35;;;;;;;3.45;1.23;;;;;;;;;;5090620;28;20054;-74
2023/02/24 05:50:08;;;;;;;4.97;1.33;;;;;;;;;;5109324;28;20057;-74
2023/02/24 05:52:39;;;;;;;4.95;1.13;;;;;;;;;;5108923;28;20046;-73
2023/02/24 05:55:12;;;;;;;1.85;1.15;;;;;;;;;;5090916;28;20525;-73
2023/02/24 05:57:43;;;;;;;3.50;1.10;;;;;;;;;;5109283;28;20039;-73
2023/02/24 06:00:15;;;;;;;5.68;1.48;;;;;;;;;;5108365;28;20047;-72
2023/02/24 06:02:49;;;;;;;6.07;1.70;;;;;;;;;;5108912;28;20054;-74
2023/02/24 06:05:28;;;;;;;2.58;1.10;;;;;;;;;;5108727;28;20050;-72
2023/02/24 06:08:05;;;;;;;5.03;1.30;;;;;;;;;;5109591;28;20054;-73
2023/02/24 06:10:39;;;;;;;6.38;1.30;;;;;;;;;;5090147;28;20054;-74
2023/02/24 06:13:10;;;;;;;8.10;1.50;;;;;;;;;;5109251;28;20055;-73
2023/02/24 06:15:45;;;;;;;4.05;1.15;;;;;;;;;;5108529;28;20047;-74
2023/02/24 06:18:16;;;;;;;4.78;1.33;;;;;;;;;;5089794;28;20545;-74
2023/02/24 06:20:49;;;;;;;6.63;1.58;;;;;;;;;;5090718;28;20039;-73
2023/02/24 06:23:20;;;;;;;9.32;1.75;;;;;;;;;;5108382;28;20051;-73
2023/02/24 06:25:50;;;;;;;4.60;1.40;;;;;;;;;;5108270;28;20039;-74
2023/02/24 06:28:20;;;;;;;4.70;1.40;;;;;;;;;;5108037;28;20046;-73
2023/02/24 06:30:51;;;;;;;4.28;1.10;;;;;;;;;;5108703;28;20398;-72
2023/02/24 06:33:21;;;;;;;3.53;1.50;;;;;;;;;;5108406;28;20424;-73
2023/02/24 06:35:52;;;;;;;5.28;1.35;;;;;;;;;;5108563;28;20414;-74
2023/02/24 06:38:22;;;;;;;4.38;1.40;;;;;;;;;;5107277;28;20058;-74
2023/02/24 06:40:57;;;;;;;4.20;1.15;;;;;;;;;;5107688;28;20044;-73
2023/02/24 06:43:28;;;;;;;6.00;1.30;;;;;;;;;;5108131;28;20051;-73
2023/02/24 06:46:01;;;;;;;7.35;1.60;;;;;;;;;;5108371;28;20048;-73
2023/02/24 06:48:32;;;;;;;2.40;0.93;;;;;;;;;;5108022;28;20048;-74
2023/02/24 06:51:09;;;;;;;1.60;0.82;;;;;;;;;;5108198;28;20048;-72
2023/02/24 06:53:42;;;;;;;4.43;1.15;;;;;;;;;;5107933;28;20043;-74
2023/02/24 06:56:18;;;;;;;8.32;0.98;;;;;;;;;;5107950;28;20494;-74
2023/02/24 06:58:50;;;;;;;2.28;0.90;;;;;;;;;;5108396;28;20050;-74
2023/02/24 07:01:24;;;;;;;4.40;0.90;;;;;;;;;;5090553;28;20581;-73
2023/02/24 07:06:42;;;;;;;2.28;1.08;;;;;;;;;;5108172;28;20078;-73
2023/02/24 07:09:17;;;;;;;1.73;1.13;;;;;;;;;;5107675;28;20051;-74
2023/02/24 07:11:51;;;;;;;;;;;;;;;;;;5108279;28;20043;-74
2023/02/24 07:14:23;;;;;;;5.82;1.20;;;;;;;;;;5107055;28;19923;-74
2023/02/24 07:16:54;;;;;;;2.10;1.00;;;;;;;;;;5107629;28;20036;-74
2023/02/24 07:19:28;;;;;;;3.70;1.10;;;;;;;;;;5108008;28;20048;-73
2023/02/24 07:22:02;;;;;;;2.28;1.20;;;;;;;;;;5107789;28;20051;-73
2023/02/24 07:24:35;;;;;;;3.13;1.00;;;;;;;;;;5107603;28;20410;-73
2023/02/24 07:27:08;;;;;;;4.88;1.02;;;;;;;;;;5107865;28;20043;-73
2023/02/24 07:29:39;;;;;;;1.73;0.90;;;;;;;;;;5107455;28;20058;-74
2023/02/24 07:32:10;;;;;;;5.35;1.60;;;;;;;;;;5107409;28;20051;-74
2023/02/24 07:34:41;;;;;;;5.40;0.90;;;;;;;;;;5106939;28;20074;-72
2023/02/24 07:37:12;;;;;;;3.35;1.17;;;;;;;;;;5106919;28;20043;-74
2023/02/24 07:39:44;;;;;;;7.78;1.30;;;;;;;;;;5107440;28;20043;-73
2023/02/24 07:42:16;;;;;;;9.48;1.33;;;;;;;;;;5107033;28;20522;-74
2023/02/24 07:44:47;;;;;;;4.07;1.20;;;;;;;;;;5107354;28;20051;-73
2023/02/24 07:47:20;;;;;;;2.80;1.25;;;;;;;;;;5106762;28;20418;-72
2023/02/24 07:49:50;;;;;;;2.40;0.80;;;;;;;;;;5107268;28;20067;-72
2023/02/24 07:52:20;;;;;;;1.48;1.05;;;;;;;;;;5107540;28;20051;-72
2023/02/24 07:54:51;;;;;;;1.63;1.13;;;;;;;;;;5107345;28;20062;-73
2023/02/24 07:57:23;;;;;;;2.67;1.30;;;;;;;;;;5107234;28;20055;-73
2023/02/24 07:59:54;;;;;;;2.13;1.23;;;;;;;;;;5106899;28;20050;-73
2023/02/24 08:02:24;;;;;;;6.60;1.45;;;;;;;;;;5106936;28;20044;-73
2023/02/24 08:04:55;;;;;;;2.92;1.00;;;;;;;;;;5106895;28;20499;-72
2023/02/24 08:07:25;;;;;;;3.33;1.00;;;;;;;;;;5107003;28;20054;-72
2023/02/24 08:10:22;;;;;;;3.65;1.38;;;;;;;;;;5106881;28;20043;-73
2023/02/24 08:13:01;;;;;;;3.47;1.23;;;;;;;;;;5106601;28;20055;-73
2023/02/24 08:15:32;;;;;;;2.80;1.20;;;;;;;;;;5107225;28;20501;-73
2023/02/24 08:18:03;;;;;;;4.18;1.10;;;;;;;;;;5106492;28;20051;-74
2023/02/24 08:20:50;;;;;;;6.43;1.10;;;;;;;;;;5106908;28;20525;-73
2023/02/24 08:23:22;;;;;;;8.20;1.20;;;;;;;;;;5107472;28;20047;-73
2023/02/24 08:25:52;;;;;;;3.72;0.93;;;;;;;;;;5092943;28;20413;-72
2023/02/24 08:28:25;;;;;;;4.78;1.00;;;;;;;;;;5111014;28;20036;-73
2023/02/24 08:30:55;;;;;;;5.55;1.08;;;;;;;;;;5110564;28;20050;-72
2023/02/24 08:33:28;;;;;;;6.82;1.48;;;;;;;;;;5110452;28;20079;-72
2023/02/24 08:36:00;;;;;;;2.15;1.05;;;;;;;;;;5110800;28;20055;-73
2023/02/24 08:38:43;;;;;;;4.80;1.77;;;;;;;;;;5111240;28;20058;-72
2023/02/24 08:41:19;;;;;;;9.75;1.80;;;;;;;;;;5110785;28;20043;-73
2023/02/24 08:43:52;;;;;;;2.75;1.70;;;;;;;;;;5110611;28;20062;-72
2023/02/24 08:46:24;;;;;;;3.35;1.73;;;;;;;;;;5110537;28;20387;-73
2023/02/24 08:48:59;;;;;;;6.13;1.67;;;;;;;;;;5110273;28;20048;-72
2023/02/24 08:51:35;;;;;;;3.20;1.70;;;;;;;;;;5110131;28;20687;-74
2023/02/24 08:54:14;;;;;;;4.63;1.52;;;;;;;;;;5110276;28;20055;-72
2023/02/24 08:56:54;;;;;;;3.45;1.67;;;;;;;;;;5108770;28;20056;-73
2023/02/24 08:59:48;;;;;;;7.20;1.52;;;;;;;;;;5110278;28;20043;-74
2023/02/24 09:02:26;;;;;;;5.43;1.60;;;;;;;;;;5110610;28;20047;-74
2023/02/24 09:05:09;;;;;;;4.72;1.60;;;;;;;;;;5091769;28;20055;-73
2023/02/24 09:07:43;;;;;;;3.20;1.45;;;;;;;;;;5109806;28;20050;-74
2023/02/24 09:10:18;;;;;;;6.05;1.77;;;;;;;;;;5109861;28;20036;-73
2023/02/24 09:12:52;;;;;;;6.90;3.72;;;;;;;;;;5110064;28;20039;-74
2023/02/24 09:15:40;;;;;;;4.82;1.40;;;;;;;;;;5109694;28;20499;-73
2023/02/24 09:18:13;;;;;;;9.52;2.10;;;;;;;;;;5109918;28;20513;-74
2023/02/24 09:20:55;;;;;;;5.40;1.65;;;;;;;;;;5110434;28;20052;-74
2023/02/24 09:23:29;;;;;;;7.00;1.60;;;;;;;;;;5109417;28;20047;-74
2023/02/24 09:26:09;;;;;;;11.38;1.85;;;;;;;;;;5109876;28;20430;-75
2023/02/24 09:28:54;;;;;;;5.15;1.55;;;;;;;;;;5110103;28;20051;-73
2023/02/24 09:31:39;;;;;;;7.80;2.03;;;;;;;;;;5092001;28;20418;-73
2023/02/24 09:34:17;;;;;;;3.90;1.85;;;;;;;;;;5110040;28;20047;-76
2023/02/24 09:37:01;;;;;;;5.75;1.40;;;;;;;;;;5108472;28;20070;-73
2023/02/24 09:42:45;;;;;;;5.22;1.83;;;;;;;;;;5068646;28;20506;-72
2023/02/24 09:45:31;;;;;;;9.48;1.83;;;;;;;;;;5109369;28;20040;-75
2023/02/24 09:48:15;;;;;;;4.88;1.67;;;;;;;;;;5109384;28;20059;-71
2023/02/24 09:50:59;;;;;;;3.20;1.63;;;;;;;;;;5109286;28;20056;-74
2023/02/24 09:53:37;;;;;;;6.20;1.75;;;;;;;;;;5109810;28;20052;-73
2023/02/24 09:56:28;;;;;;;7.95;2.08;;;;;;;;;;5091420;28;20048;-71
2023/02/24 09:59:25;;;;;;;8.82;1.80;;;;;;;;;;5109197;28;20051;-73
2023/02/24 10:02:26;;;;;;;4.82;1.90;;;;;;;;;;5108902;28;20047;-74
2023/02/24 10:05:16;;;;;;;3.60;1.80;;;;;;;;;;5109180;28;20489;-73
2023/02/24 10:07:47;;;;;;;5.22;1.77;;;;;;;;;;5091380;28;20050;-73
2023/02/24 10:10:29;;;;;;;3.78;1.98;;;;;;;;;;5108877;28;20036;-74
2023/02/24 10:13:31;;;;;;;8.35;2.05;;;;;;;;;;5108890;28;20043;-73
2023/02/24 10:16:10;;;;;;;12.20;2.30;;;;;;;;;;5108079;28;20047;-74
2023/02/24 10:19:13;;;;;;;7.40;2.17;;;;;;;;;;5109092;28;20051;-73
2023/02/24 10:22:01;;;;;;;9.75;1.73;;;;;;;;;;5108704;28;20379;-72
2023/02/24 10:24:47;;;;;;;4.18;1.40;;;;;;;;;;5108789;28;20048;-77
2023/02/24 10:27:30;;;;;;;7.75;1.60;;;;;;;;;;5108055;28;20050;-73
2023/02/24 10:30:19;;;;;;;5.40;1.52;;;;;;;;;;5108288;28;20043;-77
2023/02/24 10:32:58;;;;;;;7.88;1.50;;;;;;;;;;5108667;28;20047;-73
2023/02/24 10:35:32;;;;;;;11.85;2.22;;;;;;;;;;5096257;28;20052;-72
2023/02/24 10:38:06;;;;;;;11.68;2.03;;;;;;;;;;5088230;28;20044;-73
2023/02/24 10:40:56;;;;;;;2.63;1.52;;;;;;;;;;5088529;28;20053;-72
2023/02/24 10:43:30;;;;;;;11.63;2.20;;;;;;;;;;5088265;28;20055;-73
2023/02/24 10:46:15;;;;;;;18.88;2.65;;;;;;;;;;5068969;28;20407;-71
2023/02/24 10:49:01;;;;;;;8.32;2.78;;;;;;;;;;5087540;28;20051;-73
2023/02/24 10:51:39;;;;;;;19.58;3.47;;;;;;;;;;5100774;28;20040;-73
2023/02/24 10:54:33;;;;;;;12.82;2.90;;;;;;;;;;5107790;28;20043;-73
2023/02/24 10:57:06;;;;;;;11.23;3.00;;;;;;;;;;5107893;28;20481;-73
2023/02/24 11:03:13;;;;;;;10.13;3.05;;;;;;;;;;5107494;28;20048;-72
2023/02/24 11:06:29;;;;;;;11.68;3.25;;;;;;;;;;5107627;28;20047;-71
2023/02/24 11:09:07;;;;;;;23.33;4.53;;;;;;;;;;5106681;28;20054;-71
2023/02/24 11:17:25;;;;;;;12.70;2.75;;;;;;;;;;5107482;28;20051;-71
2023/02/24 11:20:11;;;;;;;7.07;2.50;;;;;;;;;;5107200;28;20055;-72
2023/02/24 11:22:45;;;;;;;7.55;1.75;;;;;;;;;;5107907;28;20051;-71
2023/02/24 11:25:34;;;;;;;4.95;1.95;;;;;;;;;;5107213;28;20043;-75
2023/02/24 11:28:28;;;;;;;14.05;2.58;;;;;;;;;;5107757;28;20118;-80
2023/02/24 11:31:20;;;;;;;4.00;1.80;;;;;;;;;;5060637;28;20058;-76
2023/02/24 11:34:10;;;;;;;7.88;1.90;;;;;;;;;;5090088;28;20067;-75
2023/02/24 11:37:05;;;;;;;11.80;2.40;;;;;;;;;;5106510;28;20051;-72
2023/02/24 11:39:46;;;;;;;5.20;2.78;;;;;;;;;;5105584;28;20051;-73
2023/02/24 11:42:36;;;;;;;10.15;2.55;;;;;;;;;;5086628;28;20055;-73
2023/02/24 11:45:28;;;;;;;9.80;3.60;;;;;;;;;;5086841;28;20055;-71
2023/02/24 11:48:14;;;;;;;7.63;2.63;;;;;;;;;;5105776;28;20055;-73
2023/02/24 11:50:49;;;;;;;10.13;2.00;;;;;;;;;;5106351;28;20056;-72
2023/02/24 11:53:42;;;;;;;6.68;2.30;;;;;;;;;;5106685;28;20043;-72
2023/02/24 11:56:15;;;;;;;5.63;2.30;;;;;;;;;;5107426;28;20044;-72
2023/02/24 11:58:48;;;;;;;6.40;2.40;;;;;;;;;;5109672;28;20401;-71
2023/02/24 12:02:13;;;;;;;8.45;2.53;;;;;;;;;;5095920;28;20039;-71
2023/02/24 12:04:52;;;;;;;11.95;2.17;;;;;;;;;;5113767;28;20059;-74
2023/02/24 12:07:41;;;;;;;10.88;3.40;;;;;;;;;;5113742;28;20047;-72
2023/02/24 12:10:24;;;;;;;9.07;3.20;;;;;;;;;;5113756;28;20058;-71
2023/02/24 12:13:14;;;;;;;9.18;3.88;;;;;;;;;;5113873;28;21133;-72
2023/02/24 12:15:59;;;;;;;15.30;4.00;;;;;;;;;;5114084;28;20066;-72
2023/02/24 12:18:34;;;;;;;11.90;4.75;;;;;;;;;;5113549;28;20044;-71
2023/02/24 12:21:21;;;;;;;9.80;4.78;;;;;;;;;;5114468;28;20052;-72
2023/02/24 12:23:53;;;;;;;21.35;5.30;;;;;;;;;;5113535;28;20050;-73
2023/02/24 12:27:01;;;;;;;9.68;5.10;;;;;;;;;;5113502;28;20428;-72
2023/02/24 12:29:41;;;;;;;16.52;5.95;;;;;;;;;;5094664;28;20059;-73
2023/02/24 12:32:52;;;;;;;13.57;6.50;;;;;;;;;;5109623;28;20047;-72
2023/02/24 12:35:43;;;;;;;17.00;6.45;;;;;;;;;;5009854;28;20527;-72
2023/02/24 12:38:39;;;;;;;11.57;5.50;;;;;;;;;;5010126;28;20054;-72
2023/02/24 12:41:31;;;;;;;11.93;5.20;;;;;;;;;;5084432;28;20059;-72
2023/02/24 12:44:18;;;;;;;10.52;5.72;;;;;;;;;;5092586;28;20044;-72
2023/02/24 12:47:15;;;;;;;14.07;6.45;;;;;;;;;;5074934;28;20513;-72
2023/02/24 12:50:06;;;;;;;14.05;6.03;;;;;;;;;;5062662;28;20127;-73
2023/02/24 12:52:47;;;;;;;13.38;6.72;;;;;;;;;;5092427;28;20051;-73
2023/02/24 12:55:43;;;;;;;14.82;7.10;;;;;;;;;;5092964;28;20051;-72
2023/02/24 12:58:27;;;;;;;17.90;7.63;;;;;;;;;;5092434;28;20058;-72
2023/02/24 13:01:33;;;;;;;19.73;7.30;;;;;;;;;;5073742;28;20537;-72
2023/02/24 13:04:17;;;;;;;11.98;6.95;;;;;;;;;;5025355;28;20059;-73
2023/02/24 13:07:27;;;;;;;13.15;7.53;;;;;;;;;;5093000;28;20522;-72
2023/02/24 13:10:32;;;;;;;16.45;7.75;;;;;;;;;;5091958;28;20570;-72
2023/02/24 13:13:34;;;;;;;13.75;7.13;;;;;;;;;;5067670;28;20056;-73
2023/02/24 13:16:04;;;;;;;14.18;6.80;;;;;;;;;;5063496;28;20842;-74
2023/02/24 13:18:38;;;;;;;14.20;6.22;;;;;;;;;;5089527;28;20411;-74
2023/02/24 13:21:21;;;;;;;13.10;6.72;;;;;;;;;;5089467;28;20055;-76
2023/02/24 13:24:02;;;;;;;19.10;7.93;;;;;;;;;;5089432;28;20071;-74
2023/02/24 13:26:33;;;;;;;13.90;7.13;;;;;;;;;;5071981;28;20047;-73
2023/02/24 13:29:12;;;;;;;12.82;6.97;;;;;;;;;;5089395;28;20044;-73
2023/02/24 13:31:51;;;;;;;11.85;6.38;;;;;;;;;;5089121;28;20051;-74
2023/02/24 13:34:33;;;;;;;11.57;5.93;;;;;;;;;;5089343;28;20492;-73
2023/02/24 13:37:03;;;;;;;11.90;5.40;;;;;;;;;;5089648;28;20466;-73
2023/02/24 13:39:36;;;;;;;11.70;5.05;;;;;;;;;;5088951;28;20048;-74
2023/02/24 13:42:30;;;;;;;12.32;5.22;;;;;;;;;;5089210;28;20071;-74
2023/02/24 13:45:19;;;;;;;11.52;5.88;;;;;;;;;;5079940;28;20510;-74
2023/02/24 13:48:11;;;;;;;11.90;4.95;;;;;;;;;;5093412;28;20062;-77
2023/02/24 13:50:43;;;;;;;8.95;4.72;;;;;;;;;;5091324;28;20086;-73
2023/02/24 13:53:42;;;;;;;8.07;4.88;;;;;;;;;;5109389;28;20414;-73
2023/02/24 13:56:32;;;;;;;9.57;4.78;;;;;;;;;;5090939;28;20047;-77
2023/02/24 13:59:37;;;;;;;8.43;4.30;;;;;;;;;;5109301;28;20043;-74
2023/02/24 14:02:23;;;;;;;7.20;4.40;;;;;;;;;;5109354;28;20044;-75
2023/02/24 14:05:02;;;;;;;11.00;4.68;;;;;;;;;;5109297;28;20051;-74
2023/02/24 14:07:36;;;;;;;7.53;4.03;;;;;;;;;;5108962;28;20047;-73
2023/02/24 14:10:19;;;;;;;6.53;3.92;;;;;;;;;;5108690;28;20044;-73
2023/02/24 14:13:11;;;;;;;7.07;4.13;;;;;;;;;;5107564;28;20066;-73
2023/02/24 14:15:45;;;;;;;5.57;3.88;;;;;;;;;;5109279;28;20058;-74
2023/02/24 14:18:24;;;;;;;6.47;3.55;;;;;;;;;;5108739;28;20056;-74
2023/02/24 14:20:57;;;;;;;5.28;3.58;;;;;;;;;;5108742;28;20070;-73
2023/02/24 14:23:30;;;;;;;9.30;3.50;;;;;;;;;;5108970;28;20040;-74
2023/02/24 14:26:14;;;;;;;6.95;3.78;;;;;;;;;;5108758;28;20051;-73
2023/02/24 14:29:00;;;;;;;6.93;4.97;;;;;;;;;;5107987;28;20047;-72
2023/02/24 14:31:31;;;;;;;9.10;3.65;;;;;;;;;;5108691;28;20511;-73
2023/02/24 14:34:07;;;;;;;10.70;3.80;;;;;;;;;;5108636;28;20052;-73
2023/02/24 14:36:43;;;;;;;4.90;3.47;;;;;;;;;;5108107;28;20043;-72
2023/02/24 14:39:25;;;;;;;8.40;3.63;;;;;;;;;;5108166;28;20039;-72
2023/02/24 14:42:08;;;;;;;6.55;4.25;;;;;;;;;;5108029;28;20043;-75
2023/02/24 14:44:47;;;;;;;7.35;3.83;;;;;;;;;;5108348;28;20040;-73
2023/02/24 14:47:21;;;;;;;8.20;3.70;;;;;;;;;;5108270;28;20529;-72
2023/02/24 14:50:03;;;;;;;8.68;3.80;;;;;;;;;;5108589;28;20458;-72
2023/02/24 14:52:49;;;;;;;7.38;4.22;;;;;;;;;;5107662;28;20058;-73
2023/02/24 14:55:24;;;;;;;13.07;3.58;;;;;;;;;;5108022;28;20055;-72
2023/02/24 14:58:16;;;;;;;5.13;3.40;;;;;;;;;;5107269;28;20039;-73
2023/02/24 15:01:01;;;;;;;10.07;4.55;;;;;;;;;;5107198;28;20044;-76
2023/02/24 15:03:36;;;;;;;5.38;3.70;;;;;;;;;;5107605;28;20044;-75
2023/02/24 15:06:14;;;;;;;10.13;4.05;;;;;;;;;;5107396;28;20483;-72
2023/02/24 15:08:48;;;;;;;4.75;3.53;;;;;;;;;;5107486;28;20039;-73
2023/02/24 15:11:27;;;;;;;7.00;3.38;;;;;;;;;;5107192;28;20047;-73
2023/02/24 15:14:01;;;;;;;5.43;3.08;;;;;;;;;;5107511;28;20426;-73
2023/02/24 15:16:46;;;;;;;5.32;3.35;;;;;;;;;;5107973;28;20055;-72
2023/02/24 15:19:36;;;;;;;6.28;3.75;;;;;;;;;;5107096;28;20050;-73
2023/02/24 15:22:33;;;;;;;3.75;2.50;;;;;;;;;;5107479;28;20764;-74
2023/02/24 15:25:15;;;;;;;5.30;2.88;;;;;;;;;;5107255;28;20051;-74
2023/02/24 15:28:00;;;;;;;5.20;2.80;;;;;;;;;;5107066;28;20044;-74
2023/02/24 15:30:53;;;;;;;7.88;3.85;;;;;;;;;;5107714;28;20437;-72
2023/02/24 15:33:28;;;;;;;5.93;3.10;;;;;;;;;;5106463;28;20048;-73
2023/02/24 15:35:59;;;;;;;4.00;2.60;;;;;;;;;;5088539;28;20047;-76
2023/02/24 15:38:36;;;;;;;4.18;2.70;;;;;;;;;;5106442;28;20043;-74
2023/02/24 15:41:09;;;;;;;4.07;2.40;;;;;;;;;;5107350;28;20445;-73
2023/02/24 15:43:51;;;;;;;5.45;2.45;;;;;;;;;;5088882;28;20536;-74
2023/02/24 15:46:30;;;;;;;3.55;2.40;;;;;;;;;;5089266;28;20506;-74
2023/02/24 15:49:02;;;;;;;7.13;2.70;;;;;;;;;;5070812;28;20059;-74
2023/02/24 15:51:45;;;;;;;6.43;2.67;;;;;;;;;;5106934;28;20222;-73
2023/02/24 15:54:33;;;;;;;4.47;2.53;;;;;;;;;;5106576;28;20062;-74
2023/02/24 15:57:05;;;;;;;4.60;2.50;;;;;;;;;;5106111;28;20040;-72
2023/02/24 15:59:35;;;;;;;3.35;2.22;;;;;;;;;;5106804;28;20047;-73
2023/02/24 16:02:20;;;;;;;4.30;2.33;;;;;;;;;;5106979;28;20032;-73
2023/02/24 16:04:52;;;;;;;5.28;2.58;;;;;;;;;;5089233;28;20055;-73
2023/02/24 16:08:26;;;;;;;5.32;2.65;;;;;;;;;;5088210;28;20401;-73
2023/02/24 16:12:31;;;;;;;6.65;2.40;;;;;;;;;;5107345;28;20064;-73
2023/02/24 16:16:32;;;;;;;;;;;;;;;;;;5107896;28;20055;-73